createdAt,value
2022-10-02T00:01:43.954Z,11.70
2022-10-02T00:04:13.796Z,11.72
2022-10-02T00:06:46.322Z,11.71
2022-10-02T00:09:29.120Z,11.63
2022-10-02T00:11:57.764Z,11.56
2022-10-02T00:14:25.323Z,11.61
2022-10-02T00:16:53.999Z,11.66
2022-10-02T00:19:20.551Z,11.70
2022-10-02T00:21:53.604Z,11.69
2022-10-02T00:24:24.000Z,11.72
2022-10-02T00:27:15.500Z,11.77
2022-10-02T00:29:44.854Z,11.77
2022-10-02T00:32:19.160Z,11.72
2022-10-02T00:34:45.500Z,11.68
2022-10-02T00:37:20.844Z,11.71
2022-10-02T00:40:22.711Z,11.73
2022-10-02T00:42:54.387Z,11.74
2022-10-02T00:45:23.580Z,11.75
2022-10-02T00:47:53.032Z,11.72
2022-10-02T00:50:31.641Z,11.67
2022-10-02T00:53:16.595Z,11.68
2022-10-02T00:55:42.958Z,11.72
2022-10-02T00:58:27.753Z,11.72
2022-10-02T01:01:02.531Z,11.71
2022-10-02T01:03:40.230Z,11.69
2022-10-02T01:06:07.683Z,11.71
2022-10-02T01:08:35.222Z,11.64
2022-10-02T01:11:02.403Z,11.60
2022-10-02T01:13:29.874Z,11.61
2022-10-02T01:15:57.253Z,11.56
2022-10-02T01:18:23.943Z,11.56
2022-10-02T01:20:52.556Z,11.58
2022-10-02T01:23:21.735Z,11.58
2022-10-02T01:25:48.159Z,11.48
2022-10-02T01:28:14.609Z,11.46
2022-10-02T01:30:43.077Z,11.45
2022-10-02T01:33:09.704Z,11.42
2022-10-02T01:35:38.043Z,11.36
2022-10-02T01:38:07.134Z,11.31
2022-10-02T01:40:34.531Z,11.36
2022-10-02T01:43:03.026Z,11.36
2022-10-02T01:45:49.665Z,11.38
2022-10-02T01:48:19.097Z,11.37
2022-10-02T01:50:52.559Z,11.35
2022-10-02T01:53:40.565Z,11.35
2022-10-02T01:56:13.407Z,11.36
2022-10-02T01:58:42.812Z,11.32
2022-10-02T02:01:12.379Z,11.34
2022-10-02T02:03:38.774Z,11.32
2022-10-02T02:06:07.931Z,11.32
2022-10-02T02:08:34.299Z,11.28
2022-10-02T02:11:21.192Z,11.16
2022-10-02T02:13:58.300Z,11.09
2022-10-02T02:16:32.175Z,11.00
2022-10-02T02:18:58.535Z,11.05
2022-10-02T02:21:28.640Z,10.99
2022-10-02T02:23:56.181Z,10.94
2022-10-02T02:26:24.412Z,10.95
2022-10-02T02:28:53.691Z,10.96
2022-10-02T02:31:22.293Z,11.00
2022-10-02T02:33:53.006Z,11.01
2022-10-02T02:36:22.575Z,11.00
2022-10-02T02:38:51.472Z,10.96
2022-10-02T02:41:24.212Z,10.96
2022-10-02T02:44:02.790Z,11.00
2022-10-02T02:46:29.212Z,10.96
2022-10-02T02:48:58.705Z,10.95
2022-10-02T02:51:32.256Z,11.01
2022-10-02T02:54:09.515Z,11.03
2022-10-02T02:56:36.392Z,11.04
2022-10-02T02:59:09.466Z,11.07
2022-10-02T03:01:36.031Z,11.08
2022-10-02T03:04:02.429Z,11.08
2022-10-02T03:06:31.925Z,11.08
2022-10-02T03:08:58.753Z,11.06
2022-10-02T03:11:43.860Z,11.04
2022-10-02T03:14:29.186Z,11.00
2022-10-02T03:16:58.735Z,11.04
2022-10-02T03:19:46.048Z,11.10
2022-10-02T03:22:36.335Z,11.07
2022-10-02T03:25:14.978Z,11.06
2022-10-02T03:27:44.449Z,11.07
2022-10-02T03:30:14.819Z,11.09
2022-10-02T03:32:43.224Z,11.06
2022-10-02T03:35:13.200Z,11.05
2022-10-02T03:37:44.086Z,11.01
2022-10-02T03:40:10.544Z,10.96
2022-10-02T03:42:37.054Z,10.97
2022-10-02T03:45:04.183Z,11.02
2022-10-02T03:47:30.806Z,11.07
2022-10-02T03:49:57.163Z,11.11
2022-10-02T03:52:24.298Z,11.13
2022-10-02T03:54:56.200Z,11.16
2022-10-02T03:57:23.770Z,11.08
2022-10-02T04:00:09.259Z,11.01
2022-10-02T04:02:38.453Z,11.03
2022-10-02T04:05:23.171Z,11.10
2022-10-02T04:07:53.014Z,11.15
2022-10-02T04:10:37.205Z,11.18
2022-10-02T04:13:27.660Z,11.19
2022-10-02T04:16:02.884Z,11.19
2022-10-02T04:18:52.621Z,11.21
2022-10-02T04:21:29.366Z,11.18
2022-10-02T04:23:59.699Z,11.17
2022-10-02T04:26:37.592Z,11.14
2022-10-02T04:29:13.534Z,11.17
2022-10-02T04:31:40.144Z,11.14
2022-10-02T04:34:07.646Z,11.16
2022-10-02T04:36:34.181Z,11.19
2022-10-02T04:39:16.189Z,11.19
2022-10-02T04:41:42.557Z,11.21
2022-10-02T04:44:15.166Z,11.18
2022-10-02T04:46:50.666Z,11.11
2022-10-02T04:49:35.787Z,11.09
2022-10-02T04:52:08.592Z,11.03
2022-10-02T04:54:53.354Z,11.03
2022-10-02T04:57:22.886Z,11.01
2022-10-02T04:59:59.773Z,11.02
2022-10-02T05:02:26.228Z,11.04
2022-10-02T05:04:58.642Z,11.08
2022-10-02T05:07:44.002Z,11.04
2022-10-02T05:10:28.712Z,11.04
2022-10-02T05:12:58.089Z,11.03
2022-10-02T05:15:43.582Z,11.06
2022-10-02T05:18:36.035Z,11.02
2022-10-02T05:21:05.371Z,11.05
2022-10-02T05:23:37.912Z,11.07
2022-10-02T05:26:18.524Z,11.12
2022-10-02T05:29:03.653Z,11.14
2022-10-02T05:31:45.463Z,11.16
2022-10-02T05:34:27.266Z,11.13
2022-10-02T05:37:12.462Z,11.14
2022-10-02T05:39:46.955Z,11.09
2022-10-02T05:42:21.690Z,11.11
2022-10-02T05:44:51.482Z,11.11
2022-10-02T05:47:47.187Z,11.12
2022-10-02T05:50:27.296Z,11.12
2022-10-02T05:52:59.853Z,11.09
2022-10-02T05:55:31.509Z,11.08
2022-10-02T05:57:57.851Z,11.00
2022-10-02T06:00:41.151Z,11.08
2022-10-02T06:03:21.182Z,11.13
2022-10-02T06:05:50.357Z,11.10
2022-10-02T06:08:21.526Z,11.10
2022-10-02T06:10:54.229Z,11.10
2022-10-02T06:13:43.738Z,11.06
2022-10-02T06:16:10.351Z,11.13
2022-10-02T06:18:38.856Z,11.16
2022-10-02T06:21:16.557Z,11.20
2022-10-02T06:23:45.698Z,11.22
2022-10-02T06:26:47.571Z,11.24
2022-10-02T06:29:27.697Z,11.12
2022-10-02T06:31:57.378Z,11.16
2022-10-02T06:34:23.786Z,11.21
2022-10-02T06:37:05.490Z,11.24
2022-10-02T06:40:02.402Z,11.26
2022-10-02T06:42:37.660Z,11.26
2022-10-02T06:45:10.191Z,11.25
2022-10-02T06:47:49.157Z,11.22
2022-10-02T06:50:30.504Z,11.23
2022-10-02T06:52:56.857Z,11.23
2022-10-02T06:55:26.283Z,11.24
2022-10-02T06:57:52.647Z,11.16
2022-10-02T07:00:21.246Z,11.17
2022-10-02T07:03:06.742Z,11.22
2022-10-02T07:05:33.103Z,11.23
2022-10-02T07:08:12.077Z,11.20
2022-10-02T07:11:01.650Z,11.19
2022-10-02T07:13:57.457Z,11.19
2022-10-02T07:16:35.437Z,11.20
2022-10-02T07:19:05.032Z,11.20
2022-10-02T07:21:46.678Z,11.17
2022-10-02T07:24:13.021Z,11.17
2022-10-02T07:26:43.152Z,11.15
2022-10-02T07:29:09.497Z,11.20
2022-10-02T07:31:49.296Z,11.23
2022-10-02T07:34:30.742Z,11.23
2022-10-02T07:37:15.547Z,11.24
2022-10-02T07:39:41.880Z,11.15
2022-10-02T07:42:08.327Z,11.14
2022-10-02T07:44:48.654Z,11.17
2022-10-02T07:47:34.032Z,11.20
2022-10-02T07:50:10.943Z,11.22
2022-10-02T07:52:53.753Z,11.19
2022-10-02T07:55:21.330Z,11.24
2022-10-02T07:58:05.642Z,11.22
2022-10-02T08:00:34.636Z,11.13
2022-10-02T08:03:02.455Z,11.14
2022-10-02T08:05:45.978Z,11.12
2022-10-02T08:08:18.214Z,11.11
2022-10-02T08:10:47.324Z,11.14
2022-10-02T08:13:15.729Z,11.15
2022-10-02T08:15:44.275Z,11.19
2022-10-02T08:18:33.540Z,11.25
2022-10-02T08:21:01.156Z,11.29
2022-10-02T08:23:37.709Z,11.30
2022-10-02T08:26:12.511Z,11.36
2022-10-02T08:28:44.603Z,11.36
2022-10-02T08:31:12.142Z,11.44
2022-10-02T08:33:39.073Z,11.41
2022-10-02T08:36:16.561Z,11.44
2022-10-02T08:38:49.402Z,11.48
2022-10-02T08:41:20.509Z,11.50
2022-10-02T08:44:00.032Z,11.52
2022-10-02T08:46:35.704Z,11.57
2022-10-02T08:49:14.493Z,11.59
2022-10-02T08:51:40.887Z,11.60
2022-10-02T08:54:07.226Z,11.65
2022-10-02T08:56:52.364Z,11.67
2022-10-02T08:59:34.128Z,11.72
2022-10-02T09:02:20.413Z,11.76
2022-10-02T09:05:06.962Z,11.79
2022-10-02T09:07:42.430Z,11.86
2022-10-02T09:10:08.790Z,11.88
2022-10-02T09:12:58.391Z,11.96
2022-10-02T09:15:42.686Z,12.01
2022-10-02T09:18:27.978Z,12.07
2022-10-02T09:21:11.292Z,12.10
2022-10-02T09:23:56.994Z,12.14
2022-10-02T09:26:34.599Z,12.20
2022-10-02T09:29:20.372Z,12.22
2022-10-02T09:31:46.786Z,12.26
2022-10-02T09:34:23.483Z,12.24
2022-10-02T09:36:53.034Z,12.26
2022-10-02T09:39:34.654Z,12.31
2022-10-02T09:42:04.978Z,12.36
2022-10-02T09:45:01.459Z,12.40
2022-10-02T09:47:31.374Z,12.44
2022-10-02T09:50:16.397Z,12.47
2022-10-02T09:52:52.202Z,12.53
2022-10-02T09:55:37.087Z,12.54
2022-10-02T09:58:22.383Z,12.61
2022-10-02T10:00:51.980Z,12.66
2022-10-02T10:03:18.464Z,12.68
2022-10-02T10:05:52.883Z,12.68
2022-10-02T10:08:37.977Z,12.72
2022-10-02T10:11:07.379Z,12.72
2022-10-02T10:14:02.940Z,12.77
2022-10-02T10:16:32.208Z,12.83
2022-10-02T10:19:17.364Z,12.85
2022-10-02T10:21:46.756Z,12.90
2022-10-02T10:24:25.557Z,12.96
2022-10-02T10:27:07.423Z,13.01
2022-10-02T10:30:07.077Z,13.05
2022-10-02T10:32:33.449Z,13.03
2022-10-02T10:35:22.913Z,13.05
2022-10-02T10:38:08.049Z,13.05
2022-10-02T10:40:54.689Z,13.03
2022-10-02T10:43:42.014Z,13.06
2022-10-02T10:46:27.323Z,13.09
2022-10-02T10:49:12.455Z,13.13
2022-10-02T10:51:47.757Z,13.16
2022-10-02T10:54:26.264Z,13.13
2022-10-02T10:56:58.757Z,13.17
2022-10-02T10:59:42.476Z,13.16
2022-10-02T11:02:21.097Z,13.16
2022-10-02T11:05:15.576Z,13.21
2022-10-02T11:08:01.153Z,13.21
2022-10-02T11:10:27.502Z,13.23
2022-10-02T11:13:01.738Z,13.27
2022-10-02T11:15:46.011Z,13.25
2022-10-02T11:18:18.253Z,13.25
2022-10-02T11:20:47.762Z,13.26
2022-10-02T11:23:26.309Z,13.22
2022-10-02T11:26:32.377Z,13.25
2022-10-02T11:29:01.767Z,13.30
2022-10-02T11:31:47.184Z,13.34
2022-10-02T11:34:42.678Z,13.36
2022-10-02T11:37:12.266Z,13.39
2022-10-02T11:39:44.601Z,13.34
2022-10-02T11:42:23.203Z,13.30
2022-10-02T11:45:08.686Z,13.32
2022-10-02T11:47:35.058Z,13.38
2022-10-02T11:50:13.416Z,13.31
2022-10-02T11:52:53.828Z,13.35
2022-10-02T11:55:28.750Z,13.36
2022-10-02T11:57:55.158Z,13.37
2022-10-02T12:00:37.099Z,13.37
2022-10-02T12:03:03.529Z,13.33
2022-10-02T12:05:53.493Z,13.35
2022-10-02T12:08:41.284Z,13.39
2022-10-02T12:11:32.513Z,13.38
2022-10-02T12:14:25.005Z,13.41
2022-10-02T12:17:04.558Z,13.51
2022-10-02T12:19:39.675Z,13.54
2022-10-02T12:22:30.578Z,13.58
2022-10-02T12:25:21.531Z,13.60
2022-10-02T12:27:50.990Z,13.66
2022-10-02T12:30:22.914Z,13.65
2022-10-02T12:33:08.320Z,13.65
2022-10-02T12:35:38.038Z,13.71
2022-10-02T12:38:19.627Z,13.77
2022-10-02T12:40:57.799Z,13.77
2022-10-02T12:43:49.001Z,13.77
2022-10-02T12:46:29.095Z,13.80
2022-10-02T12:49:20.669Z,13.82
2022-10-02T12:52:05.941Z,13.87
2022-10-02T12:54:44.580Z,13.87
2022-10-02T12:57:51.933Z,13.91
2022-10-02T13:00:19.669Z,13.92
2022-10-02T13:03:05.644Z,13.95
2022-10-02T13:05:35.011Z,13.96
2022-10-02T13:08:20.148Z,13.92
2022-10-02T13:10:49.956Z,13.93
2022-10-02T13:13:38.422Z,13.94
2022-10-02T13:16:11.344Z,13.96
2022-10-02T13:18:43.313Z,13.98
2022-10-02T13:21:13.559Z,13.97
2022-10-02T13:23:58.263Z,14.00
2022-10-02T13:26:24.609Z,14.01
2022-10-02T13:29:03.256Z,14.02
2022-10-02T13:31:42.083Z,14.09
2022-10-02T13:34:20.509Z,14.12
2022-10-02T13:37:00.574Z,14.15
2022-10-02T13:39:34.639Z,14.16
2022-10-02T13:42:04.017Z,14.15
2022-10-02T13:44:43.529Z,14.17
2022-10-02T13:47:29.335Z,14.17
2022-10-02T13:49:58.771Z,14.13
2022-10-02T13:52:31.237Z,14.13
2022-10-02T13:54:57.696Z,14.13
2022-10-02T13:57:36.566Z,14.19
2022-10-02T14:00:10.912Z,14.23
2022-10-02T14:02:43.094Z,14.26
2022-10-02T14:05:12.470Z,14.30
2022-10-02T14:07:49.919Z,14.32
2022-10-02T14:10:28.390Z,14.36
2022-10-02T14:12:54.761Z,14.39
2022-10-02T14:15:35.341Z,14.41
2022-10-02T14:18:20.523Z,14.39
2022-10-02T14:20:59.054Z,14.35
2022-10-02T14:23:56.709Z,14.34
2022-10-02T14:26:32.830Z,14.31
2022-10-02T14:29:09.129Z,14.34
2022-10-02T14:31:55.936Z,14.31
2022-10-02T14:34:28.098Z,14.28
2022-10-02T14:37:16.729Z,14.22
2022-10-02T14:39:45.665Z,14.23
2022-10-02T14:42:12.874Z,14.22
2022-10-02T14:44:51.216Z,14.24
2022-10-02T14:47:29.592Z,14.24
2022-10-02T14:50:14.770Z,14.22
2022-10-02T14:53:02.174Z,14.12
2022-10-02T14:55:46.378Z,14.04
2022-10-02T14:58:33.051Z,14.05
2022-10-02T15:01:02.279Z,14.05
2022-10-02T15:03:37.843Z,14.01
2022-10-02T15:06:24.523Z,13.89
2022-10-02T15:08:51.025Z,13.88
2022-10-02T15:11:46.531Z,13.90
2022-10-02T15:14:28.796Z,13.80
2022-10-02T15:17:19.368Z,13.72
2022-10-02T15:19:49.998Z,13.70
2022-10-02T15:22:27.568Z,13.67
2022-10-02T15:24:57.973Z,13.63
2022-10-02T15:27:24.705Z,13.63
2022-10-02T15:30:04.410Z,13.61
2022-10-02T15:32:40.760Z,13.53
2022-10-02T15:35:22.248Z,13.47
2022-10-02T15:38:00.804Z,13.40
2022-10-02T15:40:27.242Z,13.38
2022-10-02T15:42:58.537Z,13.37
2022-10-02T15:45:31.230Z,13.33
2022-10-02T15:48:08.184Z,13.18
2022-10-02T15:50:34.618Z,13.03
2022-10-02T15:53:12.969Z,13.08
2022-10-02T15:55:43.498Z,13.11
2022-10-02T15:58:39.296Z,13.06
2022-10-02T16:01:35.530Z,13.04
2022-10-02T16:04:13.797Z,13.01
2022-10-02T16:06:45.219Z,13.00
2022-10-02T16:09:14.586Z,12.95
2022-10-02T16:11:52.717Z,12.86
2022-10-02T16:14:37.869Z,12.81
2022-10-02T16:17:24.232Z,12.76
2022-10-02T16:20:11.026Z,12.69
2022-10-02T16:22:52.834Z,12.69
2022-10-02T16:25:28.053Z,12.66
2022-10-02T16:28:00.587Z,12.65
2022-10-02T16:30:30.987Z,12.59
2022-10-02T16:33:13.143Z,12.54
2022-10-02T16:35:43.533Z,12.49
2022-10-02T16:38:22.832Z,12.38
2022-10-02T16:40:56.796Z,12.23
2022-10-02T16:43:47.590Z,12.26
2022-10-02T16:46:16.492Z,12.29
2022-10-02T16:48:54.700Z,12.30
2022-10-02T16:51:39.041Z,12.29
2022-10-02T16:54:08.569Z,12.28
2022-10-02T16:56:52.433Z,12.24
2022-10-02T16:59:24.057Z,12.22
2022-10-02T17:02:13.161Z,12.20
2022-10-02T17:04:45.282Z,12.17
2022-10-02T17:07:14.705Z,12.12
2022-10-02T17:09:45.274Z,12.13
2022-10-02T17:12:23.545Z,12.09
2022-10-02T17:14:56.458Z,11.95
2022-10-02T17:17:23.073Z,11.94
2022-10-02T17:20:04.759Z,11.87
2022-10-02T17:22:33.596Z,11.73
2022-10-02T17:25:23.130Z,11.69
2022-10-02T17:27:49.628Z,11.71
2022-10-02T17:30:16.512Z,11.71
2022-10-02T17:32:49.788Z,11.71
2022-10-02T17:35:16.149Z,11.66
2022-10-02T17:37:57.827Z,11.63
2022-10-02T17:40:47.484Z,11.56
2022-10-02T17:43:39.977Z,11.55
2022-10-02T17:46:11.171Z,11.41
2022-10-02T17:48:40.320Z,11.27
2022-10-02T17:51:24.492Z,11.20
2022-10-02T17:54:33.076Z,11.22
2022-10-02T17:57:02.240Z,11.22
2022-10-02T17:59:40.722Z,11.19
2022-10-02T18:02:07.199Z,11.18
2022-10-02T18:04:39.614Z,11.14
2022-10-02T18:07:20.295Z,11.11
2022-10-02T18:10:12.770Z,11.05
2022-10-02T18:12:39.179Z,11.03
2022-10-02T18:15:08.596Z,11.02
2022-10-02T18:17:42.398Z,10.99
2022-10-02T18:20:19.280Z,11.00
2022-10-02T18:22:55.660Z,10.97
2022-10-02T18:25:25.116Z,10.78
2022-10-02T18:27:59.447Z,10.74
2022-10-02T18:30:38.202Z,10.72
2022-10-02T18:33:27.935Z,10.63
2022-10-02T18:36:10.848Z,10.63
2022-10-02T18:38:46.075Z,10.62
2022-10-02T18:41:31.094Z,10.56
2022-10-02T18:44:06.720Z,10.51
2022-10-02T18:46:37.246Z,10.51
2022-10-02T18:49:07.885Z,10.52
2022-10-02T18:51:47.131Z,10.52
2022-10-02T18:54:32.308Z,10.48
2022-10-02T18:57:17.233Z,10.44
2022-10-02T19:00:02.483Z,10.40
2022-10-02T19:02:29.021Z,10.37
2022-10-02T19:04:55.480Z,10.31
2022-10-02T19:07:24.018Z,10.31
2022-10-02T19:09:52.770Z,10.24
2022-10-02T19:12:25.255Z,10.20
2022-10-02T19:15:10.492Z,10.16
2022-10-02T19:17:37.012Z,10.12
2022-10-02T19:20:23.630Z,10.04
2022-10-02T19:22:51.187Z,10.02
2022-10-02T19:25:20.360Z,9.96
2022-10-02T19:27:54.716Z,9.92
2022-10-02T19:30:23.108Z,9.82
2022-10-02T19:32:51.466Z,9.80
2022-10-02T19:35:18.518Z,9.85
2022-10-02T19:37:47.231Z,9.82
2022-10-02T19:40:16.043Z,9.76
2022-10-02T19:42:48.184Z,9.75
2022-10-02T19:45:25.682Z,9.73
2022-10-02T19:47:56.680Z,9.71
2022-10-02T19:50:26.323Z,9.72
2022-10-02T19:52:54.056Z,9.69
2022-10-02T19:55:25.136Z,9.69
2022-10-02T19:57:55.338Z,9.63
2022-10-02T20:00:22.606Z,9.51
2022-10-02T20:02:55.681Z,9.46
2022-10-02T20:05:29.715Z,9.43
2022-10-02T20:07:59.363Z,9.38
2022-10-02T20:10:28.360Z,9.34
2022-10-02T20:13:05.110Z,9.34
2022-10-02T20:15:57.374Z,9.30
2022-10-02T20:18:24.661Z,9.25
2022-10-02T20:20:53.243Z,9.21
2022-10-02T20:23:24.033Z,9.20
2022-10-02T20:25:52.677Z,9.17
2022-10-02T20:28:19.215Z,9.15
2022-10-02T20:30:47.644Z,9.16
2022-10-02T20:33:18.164Z,9.16
2022-10-02T20:35:48.053Z,9.15
2022-10-02T20:38:20.000Z,9.11
2022-10-02T20:40:48.208Z,9.03
2022-10-02T20:43:18.785Z,8.98
2022-10-02T20:46:05.496Z,9.01
2022-10-02T20:48:49.177Z,9.06
2022-10-02T20:51:31.260Z,9.07
2022-10-02T20:53:57.618Z,9.12
2022-10-02T20:56:24.939Z,9.14
2022-10-02T20:58:51.330Z,9.13
2022-10-02T21:01:21.196Z,9.15
2022-10-02T21:03:53.500Z,9.17
2022-10-02T21:06:19.860Z,9.22
2022-10-02T21:08:52.377Z,9.20
2022-10-02T21:11:35.773Z,9.19
2022-10-02T21:14:22.593Z,9.10
2022-10-02T21:16:58.630Z,9.16
2022-10-02T21:19:28.216Z,9.19
2022-10-02T21:21:54.591Z,9.15
2022-10-02T21:24:24.058Z,9.13
2022-10-02T21:27:08.832Z,9.17
2022-10-02T21:29:47.459Z,9.27
2022-10-02T21:32:32.662Z,9.31
2022-10-02T21:35:14.195Z,9.32
2022-10-02T21:37:55.951Z,9.32
2022-10-02T21:40:42.235Z,9.20
2022-10-02T21:43:27.893Z,9.20
2022-10-02T21:46:04.528Z,9.23
2022-10-02T21:48:33.694Z,9.31
2022-10-02T21:51:19.484Z,9.32
2022-10-02T21:53:58.017Z,9.30
2022-10-02T21:56:24.634Z,9.34
2022-10-02T21:59:09.704Z,9.39
2022-10-02T22:01:57.523Z,9.50
2022-10-02T22:04:38.031Z,9.58
2022-10-02T22:07:13.035Z,9.66
2022-10-02T22:10:03.464Z,9.72
2022-10-02T22:12:30.129Z,9.75
2022-10-02T22:15:10.796Z,9.81
2022-10-02T22:17:52.601Z,9.86
2022-10-02T22:20:21.796Z,9.94
2022-10-02T22:22:56.840Z,9.97
2022-10-02T22:25:23.312Z,10.01
2022-10-02T22:28:08.537Z,10.06
2022-10-02T22:30:43.063Z,10.11
2022-10-02T22:33:13.094Z,10.15
2022-10-02T22:36:02.485Z,10.19
2022-10-02T22:38:31.574Z,10.16
2022-10-02T22:41:06.838Z,10.11
2022-10-02T22:43:54.924Z,10.13
2022-10-02T22:46:21.339Z,10.14
2022-10-02T22:48:54.847Z,10.14
2022-10-02T22:51:40.088Z,10.16
2022-10-02T22:54:24.471Z,10.17
2022-10-02T22:56:55.920Z,10.21
2022-10-02T22:59:29.798Z,10.22
2022-10-02T23:02:04.878Z,10.23
2022-10-02T23:04:53.145Z,10.29
2022-10-02T23:07:27.014Z,10.32
2022-10-02T23:09:59.781Z,10.31
2022-10-02T23:12:47.413Z,10.34
2022-10-02T23:15:41.909Z,10.38
2022-10-02T23:18:26.554Z,10.37
2022-10-02T23:21:04.768Z,10.34
2022-10-02T23:23:43.230Z,10.31
2022-10-02T23:26:13.843Z,10.36
2022-10-02T23:28:46.404Z,10.39
2022-10-02T23:31:16.904Z,10.42
2022-10-02T23:33:43.331Z,10.39
2022-10-02T23:36:24.249Z,10.44
2022-10-02T23:38:58.259Z,10.47
2022-10-02T23:41:46.925Z,10.50
2022-10-02T23:44:17.283Z,10.48
2022-10-02T23:46:43.722Z,10.49
2022-10-02T23:49:12.081Z,10.48
2022-10-02T23:51:57.023Z,10.45
2022-10-02T23:54:37.791Z,10.43
2022-10-02T23:57:20.077Z,10.50
2022-10-02T23:59:58.415Z,10.51
